createdAt,value
2023-05-22T00:00:20.036Z,29.76
2023-05-22T00:01:20.121Z,29.71
2023-05-22T00:02:20.240Z,29.75
2023-05-22T00:03:20.254Z,29.77
2023-05-22T00:04:20.326Z,29.79
2023-05-22T00:05:20.494Z,29.82
2023-05-22T00:06:20.519Z,29.92
2023-05-22T00:07:20.586Z,29.91
2023-05-22T00:08:20.678Z,29.92
2023-05-22T00:09:20.722Z,29.94
2023-05-22T00:10:20.825Z,29.99
2023-05-22T00:11:20.891Z,30.02
2023-05-22T00:12:20.963Z,30.04
2023-05-22T00:13:21.085Z,30.06
2023-05-22T00:14:21.137Z,30.03
2023-05-22T00:15:21.220Z,30.06
2023-05-22T00:16:21.279Z,30.09
2023-05-22T00:17:21.458Z,30.12
2023-05-22T00:18:21.460Z,30.20
2023-05-22T00:19:21.559Z,30.17
2023-05-22T00:20:21.601Z,30.24
2023-05-22T00:21:21.661Z,30.23
2023-05-22T00:22:21.738Z,30.25
2023-05-22T00:23:21.839Z,30.33
2023-05-22T00:24:21.928Z,30.28
2023-05-22T00:25:22.015Z,30.31
2023-05-22T00:26:22.076Z,30.39
2023-05-22T00:27:22.164Z,30.37
2023-05-22T00:28:22.228Z,30.41
2023-05-22T00:29:22.354Z,30.43
2023-05-22T00:30:22.385Z,30.42
2023-05-22T00:31:22.477Z,30.42
2023-05-22T00:32:22.586Z,30.46
2023-05-22T00:33:22.637Z,30.45
2023-05-22T00:34:22.739Z,30.50
2023-05-22T00:35:22.786Z,30.48
2023-05-22T00:36:22.885Z,30.50
2023-05-22T00:37:22.929Z,30.49
2023-05-22T00:38:23.015Z,30.47
2023-05-22T00:39:23.112Z,30.59
2023-05-22T00:40:23.187Z,30.56
2023-05-22T00:41:23.257Z,30.54
2023-05-22T00:42:23.346Z,30.52
2023-05-22T00:43:23.436Z,30.54
2023-05-22T00:44:23.506Z,30.56
2023-05-22T00:45:23.596Z,30.59
2023-05-22T00:46:23.739Z,30.58
2023-05-22T00:47:23.908Z,30.59
2023-05-22T00:48:23.866Z,30.60
2023-05-22T00:49:23.925Z,30.62
2023-05-22T00:50:23.986Z,30.66
2023-05-22T00:51:24.100Z,30.65
2023-05-22T00:52:24.148Z,30.66
2023-05-22T00:53:24.254Z,30.65
2023-05-22T00:54:24.354Z,30.63
2023-05-22T00:55:24.418Z,30.63
2023-05-22T00:56:24.510Z,30.64
2023-05-22T00:57:24.636Z,30.60
2023-05-22T00:58:24.652Z,30.63
2023-05-22T00:59:24.749Z,30.63
2023-05-22T01:00:24.808Z,30.66
2023-05-22T01:01:24.988Z,30.66
2023-05-22T01:02:24.991Z,30.65
2023-05-22T01:03:25.116Z,30.68
2023-05-22T01:04:25.141Z,30.68
2023-05-22T01:05:25.226Z,30.69
2023-05-22T01:06:25.284Z,30.70
2023-05-22T01:07:25.401Z,30.68
2023-05-22T01:08:25.466Z,30.69
2023-05-22T01:09:25.566Z,30.70
2023-05-22T01:10:25.630Z,30.68
2023-05-22T01:11:25.706Z,30.72
2023-05-22T01:12:25.780Z,30.73
2023-05-22T01:13:25.965Z,30.77
2023-05-22T01:14:26.053Z,30.76
2023-05-22T01:15:26.040Z,30.78
2023-05-22T01:16:26.150Z,30.80
2023-05-22T01:17:26.313Z,30.77
2023-05-22T01:18:26.301Z,30.84
2023-05-22T01:19:26.404Z,30.83
2023-05-22T01:20:26.439Z,30.82
2023-05-22T01:21:26.549Z,30.95
2023-05-22T01:22:26.675Z,30.93
2023-05-22T01:23:26.724Z,30.91
2023-05-22T01:24:26.842Z,30.94
2023-05-22T01:25:26.877Z,30.86
2023-05-22T01:26:26.965Z,30.84
2023-05-22T01:27:27.047Z,30.84
2023-05-22T01:28:27.120Z,30.89
2023-05-22T01:29:27.234Z,30.83
2023-05-22T01:30:27.298Z,30.78
2023-05-22T01:31:27.371Z,30.83
2023-05-22T01:32:27.485Z,30.83
2023-05-22T01:33:27.663Z,30.77
2023-05-22T01:34:27.605Z,30.83
2023-05-22T01:35:27.679Z,30.81
2023-05-22T01:36:27.800Z,30.88
2023-05-22T01:37:27.871Z,30.83
2023-05-22T01:38:27.957Z,30.81
2023-05-22T01:39:28.045Z,30.84
2023-05-22T01:40:28.087Z,30.86
2023-05-22T01:41:28.147Z,30.80
2023-05-22T01:42:28.217Z,30.93
2023-05-22T01:43:28.303Z,30.83
2023-05-22T01:44:28.431Z,30.93
2023-05-22T01:45:28.448Z,30.83
2023-05-22T01:46:28.554Z,30.83
2023-05-22T01:47:28.659Z,30.87
2023-05-22T01:48:28.677Z,30.79
2023-05-22T01:49:28.801Z,30.78
2023-05-22T01:50:28.860Z,30.84
2023-05-22T01:51:28.942Z,30.84
2023-05-22T01:52:28.982Z,30.81
2023-05-22T01:53:29.056Z,30.99
2023-05-22T01:54:29.154Z,30.84
2023-05-22T01:55:29.251Z,30.80
2023-05-22T01:56:29.447Z,30.78
2023-05-22T01:57:29.371Z,30.91
2023-05-22T01:58:29.449Z,30.79
2023-05-22T01:59:29.529Z,30.80
2023-05-22T02:00:29.559Z,31.04
2023-05-22T02:01:29.757Z,30.77
2023-05-22T02:02:29.757Z,30.93
2023-05-22T02:03:29.884Z,30.72
2023-05-22T02:04:29.826Z,30.72
2023-05-22T02:05:29.899Z,30.72
2023-05-22T02:06:29.978Z,30.78
2023-05-22T02:07:30.060Z,30.76
2023-05-22T02:08:30.091Z,30.72
2023-05-22T02:09:30.199Z,30.75
2023-05-22T02:10:30.260Z,30.79
2023-05-22T02:11:30.339Z,30.77
2023-05-22T02:12:30.427Z,30.78
2023-05-22T02:13:30.470Z,30.86
2023-05-22T02:14:30.511Z,30.85
2023-05-22T02:15:30.579Z,30.94
2023-05-22T02:16:30.662Z,30.79
2023-05-22T02:17:30.735Z,30.91
2023-05-22T02:18:30.788Z,30.86
2023-05-22T02:19:30.856Z,30.80
2023-05-22T02:20:30.918Z,30.94
2023-05-22T02:21:30.995Z,30.78
2023-05-22T02:22:31.049Z,30.88
2023-05-22T02:23:31.113Z,30.81
2023-05-22T02:24:31.175Z,30.82
2023-05-22T02:25:31.257Z,30.87
2023-05-22T02:26:31.354Z,30.82
2023-05-22T02:27:31.461Z,30.84
2023-05-22T02:28:31.497Z,30.88
2023-05-22T02:29:32.101Z,30.80
2023-05-22T02:30:31.630Z,30.80
2023-05-22T02:31:31.722Z,30.78
2023-05-22T02:32:31.783Z,30.78
2023-05-22T02:33:31.868Z,30.75
2023-05-22T02:34:31.937Z,30.81
2023-05-22T02:35:31.977Z,30.77
2023-05-22T02:36:32.065Z,30.75
2023-05-22T02:37:32.172Z,30.75
2023-05-22T02:38:32.220Z,30.75
2023-05-22T02:39:32.301Z,30.78
2023-05-22T02:40:32.400Z,30.91
2023-05-22T02:41:32.433Z,30.88
2023-05-22T02:42:32.510Z,30.79
2023-05-22T02:43:32.576Z,30.74
2023-05-22T02:44:32.664Z,30.76
2023-05-22T02:45:32.753Z,30.97
2023-05-22T02:46:32.802Z,30.91
2023-05-22T02:47:32.918Z,30.78
2023-05-22T02:48:32.942Z,30.69
2023-05-22T02:49:33.012Z,30.70
2023-05-22T02:50:33.050Z,30.63
2023-05-22T02:51:33.138Z,30.71
2023-05-22T02:52:33.217Z,30.65
2023-05-22T02:53:33.270Z,30.64
2023-05-22T02:54:33.339Z,30.65
2023-05-22T02:55:33.435Z,30.69
2023-05-22T02:56:33.501Z,30.62
2023-05-22T02:57:33.564Z,30.65
2023-05-22T02:58:33.653Z,30.67
2023-05-22T02:59:33.725Z,30.62
2023-05-22T03:00:33.791Z,30.68
2023-05-22T03:01:33.855Z,30.67
2023-05-22T03:02:34.005Z,31.03
2023-05-22T03:03:34.086Z,30.82
2023-05-22T03:04:34.077Z,30.73
2023-05-22T03:05:34.166Z,30.67
2023-05-22T03:06:34.228Z,30.64
2023-05-22T03:07:34.278Z,30.64
2023-05-22T03:08:34.356Z,30.63
2023-05-22T03:09:34.436Z,30.66
2023-05-22T03:10:34.511Z,30.60
2023-05-22T03:11:34.607Z,30.64
2023-05-22T03:12:34.691Z,30.66
2023-05-22T03:13:34.762Z,30.64
2023-05-22T03:14:34.842Z,30.61
2023-05-22T03:15:34.906Z,30.61
2023-05-22T03:16:34.995Z,30.62
2023-05-22T03:17:35.094Z,30.62
2023-05-22T03:18:35.151Z,30.65
2023-05-22T03:19:35.240Z,30.70
2023-05-22T03:20:35.393Z,30.75
2023-05-22T03:21:35.357Z,30.60
2023-05-22T03:22:35.446Z,30.59
2023-05-22T03:23:35.524Z,30.55
2023-05-22T03:24:35.598Z,30.58
2023-05-22T03:25:35.666Z,30.65
2023-05-22T03:26:35.714Z,30.60
2023-05-22T03:27:35.809Z,30.62
2023-05-22T03:28:35.968Z,30.58
2023-05-22T03:29:35.978Z,30.63
2023-05-22T03:30:36.094Z,30.69
2023-05-22T03:31:36.121Z,30.67
2023-05-22T03:32:36.254Z,30.69
2023-05-22T03:33:36.340Z,30.73
2023-05-22T03:34:36.354Z,30.75
2023-05-22T03:35:36.458Z,30.76
2023-05-22T03:36:36.497Z,30.76
2023-05-22T03:37:36.672Z,30.72
2023-05-22T03:38:36.673Z,30.69
2023-05-22T03:39:36.737Z,30.71
2023-05-22T03:40:36.932Z,30.78
2023-05-22T03:41:36.919Z,30.73
2023-05-22T03:42:37.005Z,30.73
2023-05-22T03:43:37.092Z,30.74
2023-05-22T03:44:37.186Z,30.71
2023-05-22T03:45:37.279Z,30.73
2023-05-22T03:46:37.324Z,30.75
2023-05-22T03:47:37.431Z,30.72
2023-05-22T03:48:37.525Z,30.72
2023-05-22T03:49:37.575Z,30.74
2023-05-22T03:50:37.879Z,30.79
2023-05-22T03:51:37.698Z,30.80
2023-05-22T03:52:37.817Z,30.78
2023-05-22T03:53:37.873Z,30.84
2023-05-22T03:54:37.945Z,30.88
2023-05-22T03:55:38.034Z,30.86
2023-05-22T03:56:38.109Z,30.92
2023-05-22T03:57:38.166Z,30.93
2023-05-22T03:58:38.250Z,31.11
2023-05-22T03:59:38.293Z,30.90
2023-05-22T04:00:38.674Z,31.13
2023-05-22T04:01:38.453Z,30.89
2023-05-22T04:02:38.654Z,30.73
2023-05-22T04:03:38.678Z,30.65
2023-05-22T04:04:38.849Z,30.62
2023-05-22T04:05:38.754Z,30.66
2023-05-22T04:06:38.809Z,30.63
2023-05-22T04:07:38.868Z,30.64
2023-05-22T04:08:38.949Z,30.63
2023-05-22T04:09:39.049Z,30.64
2023-05-22T04:10:39.292Z,30.68
2023-05-22T04:11:39.192Z,30.79
2023-05-22T04:12:39.276Z,30.65
2023-05-22T04:13:39.351Z,30.67
2023-05-22T04:14:39.421Z,30.69
2023-05-22T04:15:39.538Z,30.68
2023-05-22T04:16:39.572Z,30.69
2023-05-22T04:17:39.642Z,30.69
2023-05-22T04:18:39.719Z,30.73
2023-05-22T04:19:39.772Z,30.68
2023-05-22T04:20:40.057Z,30.74
2023-05-22T04:21:39.903Z,30.73
2023-05-22T04:22:39.998Z,30.73
2023-05-22T04:23:40.096Z,30.72
2023-05-22T04:24:40.186Z,30.73
2023-05-22T04:25:40.231Z,30.73
2023-05-22T04:26:42.350Z,30.75
2023-05-22T04:27:40.406Z,30.74
2023-05-22T04:28:40.487Z,30.76
2023-05-22T04:29:40.580Z,30.75
2023-05-22T04:30:40.949Z,30.76
2023-05-22T04:31:40.801Z,30.75
2023-05-22T04:32:40.921Z,30.72
2023-05-22T04:33:40.903Z,30.72
2023-05-22T04:34:40.969Z,30.73
2023-05-22T04:35:41.067Z,30.75
2023-05-22T04:36:41.130Z,30.72
2023-05-22T04:37:41.263Z,30.72
2023-05-22T04:38:41.472Z,30.78
2023-05-22T04:39:41.427Z,30.74
2023-05-22T04:40:41.703Z,30.79
2023-05-22T04:41:41.617Z,30.79
2023-05-22T04:42:41.710Z,30.79
2023-05-22T04:43:41.825Z,30.80
2023-05-22T04:44:41.911Z,30.83
2023-05-22T04:45:41.969Z,30.79
2023-05-22T04:46:42.147Z,30.78
2023-05-22T04:47:42.177Z,30.79
2023-05-22T04:48:42.248Z,30.75
2023-05-22T04:49:42.338Z,30.78
2023-05-22T04:50:42.508Z,30.78
2023-05-22T04:51:42.521Z,30.80
2023-05-22T04:52:42.585Z,30.82
2023-05-22T04:53:42.673Z,30.77
2023-05-22T04:54:42.766Z,30.80
2023-05-22T04:55:42.858Z,30.82
2023-05-22T04:56:43.016Z,30.80
2023-05-22T04:57:43.008Z,30.81
2023-05-22T04:58:43.091Z,30.83
2023-05-22T04:59:43.145Z,30.82
2023-05-22T05:00:50.299Z,30.85
2023-05-22T05:01:43.321Z,30.86
2023-05-22T05:02:43.341Z,30.88
2023-05-22T05:03:43.370Z,30.89
2023-05-22T05:04:43.377Z,30.94
2023-05-22T05:05:43.425Z,30.97
2023-05-22T05:06:43.464Z,30.98
2023-05-22T05:07:43.480Z,31.04
2023-05-22T05:08:43.527Z,31.08
2023-05-22T05:09:43.535Z,31.09
2023-05-22T05:10:43.605Z,31.10
2023-05-22T05:11:43.660Z,31.12
2023-05-22T05:12:43.686Z,31.12
2023-05-22T05:13:43.730Z,31.17
2023-05-22T05:14:43.782Z,31.13
2023-05-22T05:15:43.796Z,31.14
2023-05-22T05:16:43.878Z,31.13
2023-05-22T05:17:43.933Z,31.11
2023-05-22T05:18:43.978Z,31.13
2023-05-22T05:19:43.969Z,31.13
2023-05-22T05:20:43.993Z,31.18
2023-05-22T05:21:44.039Z,31.16
2023-05-22T05:22:44.128Z,31.12
2023-05-22T05:23:44.118Z,31.13
2023-05-22T05:24:44.141Z,31.09
2023-05-22T05:25:44.173Z,31.09
2023-05-22T05:26:44.198Z,31.08
2023-05-22T05:27:44.273Z,31.07
2023-05-22T05:28:44.362Z,31.04
2023-05-22T05:29:44.349Z,31.07
2023-05-22T05:30:44.385Z,31.15
2023-05-22T05:31:44.402Z,31.69
2023-05-22T05:32:44.479Z,31.75
2023-05-22T05:33:44.496Z,32.17
2023-05-22T05:34:44.686Z,32.06
2023-05-22T05:35:44.653Z,32.22
2023-05-22T05:36:44.723Z,32.69
2023-05-22T05:37:44.811Z,32.82
2023-05-22T05:38:45.196Z,32.73
2023-05-22T05:39:44.966Z,32.93
2023-05-22T05:40:45.676Z,32.78
2023-05-22T05:41:45.140Z,32.84
2023-05-22T05:42:45.171Z,33.43
2023-05-22T05:43:45.689Z,33.52
2023-05-22T05:44:45.322Z,33.63
2023-05-22T05:45:45.409Z,33.49
2023-05-22T05:46:52.471Z,33.47
2023-05-22T05:47:45.563Z,33.47
2023-05-22T05:48:45.736Z,33.27
2023-05-22T05:49:46.695Z,33.23
2023-05-22T05:50:45.628Z,33.28
2023-05-22T05:51:45.655Z,32.85
2023-05-22T05:52:45.685Z,32.80
2023-05-22T05:53:45.660Z,32.70
2023-05-22T05:54:45.776Z,32.96
2023-05-22T05:55:45.710Z,33.72
2023-05-22T05:56:45.795Z,33.77
2023-05-22T05:57:45.828Z,33.33
2023-05-22T05:58:45.826Z,33.18
2023-05-22T05:59:46.328Z,33.24
2023-05-22T06:00:45.880Z,33.75
2023-05-22T06:01:45.887Z,34.03
2023-05-22T06:02:47.547Z,34.08
2023-05-22T06:03:46.127Z,34.08
2023-05-22T06:04:45.943Z,34.27
2023-05-22T06:05:46.042Z,34.29
2023-05-22T06:06:45.987Z,34.39
2023-05-22T06:07:46.012Z,34.27
2023-05-22T06:08:46.024Z,33.99
2023-05-22T06:09:46.065Z,33.43
2023-05-22T06:10:46.103Z,33.73
2023-05-22T06:11:46.085Z,34.06
2023-05-22T06:12:46.140Z,34.15
2023-05-22T06:13:46.132Z,33.59
2023-05-22T06:14:46.223Z,33.82
2023-05-22T06:15:46.223Z,34.13
2023-05-22T06:16:46.329Z,34.15
2023-05-22T06:17:46.314Z,33.99
2023-05-22T06:18:46.276Z,34.00
2023-05-22T06:19:46.718Z,34.21
2023-05-22T06:20:46.272Z,34.06
2023-05-22T06:21:46.310Z,34.28
2023-05-22T06:22:46.318Z,34.35
2023-05-22T06:23:46.336Z,34.33
2023-05-22T06:24:46.757Z,34.05
2023-05-22T06:25:46.381Z,33.83
2023-05-22T06:26:46.382Z,33.79
2023-05-22T06:27:46.438Z,33.83
2023-05-22T06:28:46.441Z,33.67
2023-05-22T06:29:46.715Z,33.67
2023-05-22T06:30:46.695Z,33.73
2023-05-22T06:31:46.571Z,33.66
2023-05-22T06:32:46.925Z,34.25
2023-05-22T06:33:46.686Z,34.20
2023-05-22T06:34:46.711Z,34.16
2023-05-22T06:35:46.662Z,34.53
2023-05-22T06:36:46.665Z,34.39
2023-05-22T06:37:46.695Z,34.50
2023-05-22T06:38:46.703Z,34.33
2023-05-22T06:39:46.735Z,34.23
2023-05-22T06:40:46.824Z,34.34
2023-05-22T06:41:46.767Z,34.34
2023-05-22T06:42:46.863Z,34.45
2023-05-22T06:43:46.820Z,34.48
2023-05-22T06:44:47.223Z,34.12
2023-05-22T06:45:46.846Z,34.62
2023-05-22T06:46:46.844Z,34.84
2023-05-22T06:47:46.908Z,34.93
2023-05-22T06:48:46.887Z,34.90
2023-05-22T06:49:47.240Z,34.14
2023-05-22T06:50:46.893Z,33.64
2023-05-22T06:51:46.911Z,33.69
2023-05-22T06:52:46.981Z,33.54
2023-05-22T06:53:46.992Z,33.57
2023-05-22T06:54:46.949Z,33.44
2023-05-22T06:55:47.074Z,33.57
2023-05-22T06:56:47.102Z,33.66
2023-05-22T06:57:47.089Z,33.58
2023-05-22T06:58:47.093Z,33.68
2023-05-22T06:59:47.132Z,33.75
2023-05-22T07:00:47.151Z,33.63
2023-05-22T07:01:47.298Z,33.65
2023-05-22T07:02:47.246Z,33.74
2023-05-22T07:03:47.273Z,34.01
2023-05-22T07:04:47.349Z,33.58
2023-05-22T07:05:47.446Z,33.56
2023-05-22T07:06:47.286Z,33.64
2023-05-22T07:07:47.376Z,33.67
2023-05-22T07:08:47.425Z,33.90
2023-05-22T07:09:47.466Z,33.87
2023-05-22T07:10:47.418Z,33.88
2023-05-22T07:11:47.452Z,33.90
2023-05-22T07:12:47.525Z,33.82
2023-05-22T07:13:47.475Z,33.66
2023-05-22T07:14:47.586Z,33.83
2023-05-22T07:15:47.691Z,33.95
2023-05-22T07:16:47.863Z,34.04
2023-05-22T07:17:47.907Z,33.67
2023-05-22T07:18:48.004Z,33.54
2023-05-22T07:19:48.237Z,33.46
2023-05-22T07:20:48.152Z,33.42
2023-05-22T07:21:48.147Z,33.34
2023-05-22T07:22:48.225Z,33.21
2023-05-22T07:23:48.323Z,33.40
2023-05-22T07:24:48.360Z,33.35
2023-05-22T07:25:48.576Z,33.37
2023-05-22T07:26:48.549Z,33.39
2023-05-22T07:27:48.583Z,33.51
2023-05-22T07:28:49.165Z,33.58
2023-05-22T07:29:48.775Z,33.54
2023-05-22T07:30:48.849Z,33.45
2023-05-22T07:31:49.014Z,33.37
2023-05-22T07:32:49.191Z,33.38
2023-05-22T07:33:49.063Z,33.47
2023-05-22T07:34:49.256Z,33.81
2023-05-22T07:35:49.276Z,33.86
2023-05-22T07:36:49.589Z,33.52
2023-05-22T07:37:49.442Z,33.54
2023-05-22T07:38:49.550Z,33.88
2023-05-22T07:39:49.594Z,34.21
2023-05-22T07:40:49.665Z,34.27
2023-05-22T07:41:49.728Z,34.36
2023-05-22T07:42:49.806Z,34.25
2023-05-22T07:43:49.946Z,34.31
2023-05-22T07:44:50.740Z,34.04
2023-05-22T07:45:50.075Z,33.99
2023-05-22T07:46:50.115Z,33.97
2023-05-22T07:47:50.283Z,34.10
2023-05-22T07:48:50.367Z,34.28
2023-05-22T07:49:50.318Z,34.24
2023-05-22T07:50:50.522Z,34.09
2023-05-22T07:51:50.438Z,34.36
2023-05-22T07:52:50.636Z,34.32
2023-05-22T07:53:50.575Z,34.05
2023-05-22T07:54:50.666Z,34.04
2023-05-22T07:55:50.683Z,34.03
2023-05-22T07:56:50.707Z,33.88
2023-05-22T07:57:51.288Z,33.77
2023-05-22T07:58:50.826Z,33.23
2023-05-22T07:59:50.894Z,32.95
2023-05-22T08:00:50.934Z,33.03
2023-05-22T08:01:51.002Z,33.11
2023-05-22T08:02:51.171Z,33.32
2023-05-22T08:03:51.225Z,33.49
2023-05-22T08:04:51.220Z,33.46
2023-05-22T08:05:51.254Z,33.28
2023-05-22T08:06:51.225Z,33.69
2023-05-22T08:07:51.238Z,33.62
2023-05-22T08:08:51.407Z,33.76
2023-05-22T08:09:51.344Z,33.85
2023-05-22T08:11:03.132Z,33.35
2023-05-22T08:11:52.403Z,33.29
2023-05-22T08:12:51.461Z,33.36
2023-05-22T08:13:51.480Z,33.46
2023-05-22T08:14:51.548Z,33.32
2023-05-22T08:15:51.671Z,33.22
2023-05-22T08:16:54.291Z,32.92
2023-05-22T08:17:51.648Z,33.27
2023-05-22T08:18:51.681Z,33.10
2023-05-22T08:19:51.811Z,32.76
2023-05-22T08:20:53.169Z,32.69
2023-05-22T08:21:51.914Z,32.90
2023-05-22T08:22:51.948Z,32.89
2023-05-22T08:23:52.049Z,32.69
2023-05-22T08:24:52.173Z,32.58
2023-05-22T08:25:52.254Z,32.56
2023-05-22T08:26:52.209Z,32.59
2023-05-22T08:27:52.262Z,32.39
2023-05-22T08:28:52.310Z,32.72
2023-05-22T08:29:52.372Z,32.63
2023-05-22T08:30:52.772Z,32.79
2023-05-22T08:31:52.679Z,32.85
2023-05-22T08:32:52.576Z,32.88
2023-05-22T08:33:52.574Z,32.44
2023-05-22T08:34:52.667Z,32.17
2023-05-22T08:35:52.754Z,32.01
2023-05-22T08:36:52.831Z,32.08
2023-05-22T08:37:52.867Z,31.38
2023-05-22T08:38:52.925Z,30.79
2023-05-22T08:39:53.015Z,31.63
2023-05-22T08:40:53.224Z,30.96
2023-05-22T08:41:53.092Z,30.98
2023-05-22T08:42:53.157Z,31.22
2023-05-22T08:43:53.185Z,30.59
2023-05-22T08:44:53.276Z,30.98
2023-05-22T08:45:53.788Z,31.13
2023-05-22T08:46:53.439Z,31.20
2023-05-22T08:47:53.462Z,30.95
2023-05-22T08:48:53.487Z,31.09
2023-05-22T08:49:53.562Z,31.10
2023-05-22T08:50:53.787Z,31.92
2023-05-22T08:51:53.702Z,31.75
2023-05-22T08:52:53.788Z,31.83
2023-05-22T08:53:53.759Z,32.48
2023-05-22T08:54:53.783Z,32.96
2023-05-22T08:55:54.346Z,33.18
2023-05-22T08:56:57.042Z,33.64
2023-05-22T08:57:53.943Z,33.68
2023-05-22T08:58:53.963Z,33.70
2023-05-22T08:59:53.944Z,33.74
2023-05-22T09:00:53.974Z,33.72
2023-05-22T09:01:53.970Z,33.99
2023-05-22T09:02:54.053Z,33.83
2023-05-22T09:03:54.011Z,33.75
2023-05-22T09:04:53.965Z,33.63
2023-05-22T09:05:54.051Z,33.59
2023-05-22T09:06:53.976Z,33.48
2023-05-22T09:07:55.259Z,33.38
2023-05-22T09:08:54.059Z,33.45
2023-05-22T09:09:54.147Z,33.52
2023-05-22T09:10:54.181Z,33.48
2023-05-22T09:11:54.228Z,33.45
2023-05-22T09:12:54.292Z,33.36
2023-05-22T09:13:54.351Z,33.14
2023-05-22T09:14:55.291Z,33.24
2023-05-22T09:15:54.447Z,33.16
2023-05-22T09:16:54.561Z,33.20
2023-05-22T09:17:54.522Z,33.04
2023-05-22T09:18:54.570Z,33.14
2023-05-22T09:19:54.666Z,33.21
2023-05-22T09:20:54.684Z,33.20
2023-05-22T09:21:54.738Z,33.13
2023-05-22T09:22:54.798Z,33.08
2023-05-22T09:23:54.852Z,33.01
2023-05-22T09:24:54.898Z,32.89
2023-05-22T09:25:54.965Z,32.85
2023-05-22T09:26:55.024Z,32.91
2023-05-22T09:27:55.112Z,32.82
2023-05-22T09:28:55.114Z,32.83
2023-05-22T09:29:55.181Z,32.86
2023-05-22T09:30:55.313Z,32.77
2023-05-22T09:31:55.389Z,32.74
2023-05-22T09:32:55.360Z,32.67
2023-05-22T09:33:55.411Z,32.59
2023-05-22T09:34:55.458Z,32.50
2023-05-22T09:35:55.528Z,32.51
2023-05-22T09:36:55.518Z,32.57
2023-05-22T09:37:55.597Z,32.50
2023-05-22T09:38:55.619Z,32.43
2023-05-22T09:39:55.712Z,32.51
2023-05-22T09:40:55.830Z,32.48
2023-05-22T09:41:55.777Z,32.40
2023-05-22T09:42:55.905Z,32.44
2023-05-22T09:43:55.874Z,32.03
2023-05-22T09:44:55.935Z,30.98
2023-05-22T09:45:56.307Z,30.85
2023-05-22T09:46:56.023Z,31.27
2023-05-22T09:47:56.174Z,31.37
2023-05-22T09:48:56.187Z,31.22
2023-05-22T09:49:56.219Z,30.93
2023-05-22T09:50:56.292Z,31.39
2023-05-22T09:51:56.315Z,31.21
2023-05-22T09:52:56.382Z,31.40
2023-05-22T09:53:56.421Z,31.53
2023-05-22T09:54:56.447Z,31.88
2023-05-22T09:55:56.476Z,31.97
2023-05-22T09:56:56.818Z,31.93
2023-05-22T09:57:56.548Z,31.81
2023-05-22T09:58:56.589Z,31.73
2023-05-22T09:59:56.674Z,31.62
2023-05-22T10:00:56.843Z,31.65
2023-05-22T10:01:56.786Z,31.03
2023-05-22T10:02:56.792Z,31.51
2023-05-22T10:03:56.834Z,30.92
2023-05-22T10:04:56.848Z,31.00
2023-05-22T10:05:56.885Z,31.18
2023-05-22T10:06:56.924Z,30.52
2023-05-22T10:07:56.931Z,30.67
2023-05-22T10:08:56.954Z,31.08
2023-05-22T10:09:56.985Z,31.33
2023-05-22T10:10:57.054Z,31.18
2023-05-22T10:11:57.328Z,31.09
2023-05-22T10:12:57.109Z,31.14
2023-05-22T10:13:57.121Z,31.22
2023-05-22T10:14:57.130Z,31.16
2023-05-22T10:15:57.216Z,31.05
2023-05-22T10:16:57.430Z,31.14
2023-05-22T10:17:57.278Z,31.36
2023-05-22T10:18:57.391Z,31.31
2023-05-22T10:19:57.339Z,31.26
2023-05-22T10:20:57.363Z,31.38
2023-05-22T10:21:57.403Z,31.64
2023-05-22T10:22:57.406Z,31.36
2023-05-22T10:23:57.398Z,31.75
2023-05-22T10:24:57.464Z,31.37
2023-05-22T10:25:57.499Z,31.34
2023-05-22T10:26:57.513Z,31.55
2023-05-22T10:27:57.595Z,31.82
2023-05-22T10:28:57.593Z,31.84
2023-05-22T10:29:57.586Z,31.75
2023-05-22T10:30:57.640Z,31.77
2023-05-22T10:31:57.638Z,31.81
2023-05-22T10:32:57.817Z,31.52
2023-05-22T10:33:57.812Z,30.92
2023-05-22T10:34:57.743Z,29.91
2023-05-22T10:35:57.732Z,30.21
2023-05-22T10:37:09.590Z,30.02
2023-05-22T10:37:58.724Z,26.68
2023-05-22T10:38:57.729Z,25.39
2023-05-22T10:39:57.735Z,25.40
2023-05-22T10:40:57.787Z,25.89
2023-05-22T10:41:57.858Z,25.99
2023-05-22T10:42:57.756Z,26.35
2023-05-22T10:43:57.737Z,26.70
2023-05-22T10:44:57.767Z,26.79
2023-05-22T10:45:57.767Z,27.03
2023-05-22T10:46:57.861Z,27.22
2023-05-22T10:47:57.802Z,27.51
2023-05-22T10:48:57.831Z,27.61
2023-05-22T10:49:57.749Z,27.67
2023-05-22T10:50:59.863Z,27.51
2023-05-22T10:51:57.853Z,27.89
2023-05-22T10:52:57.765Z,27.92
2023-05-22T10:53:57.784Z,28.14
2023-05-22T10:54:57.782Z,27.76
2023-05-22T10:55:57.807Z,27.48
2023-05-22T10:56:57.849Z,27.51
2023-05-22T10:57:57.800Z,27.88
2023-05-22T10:58:57.831Z,28.25
2023-05-22T10:59:57.812Z,28.50
2023-05-22T11:00:57.863Z,28.73
2023-05-22T11:01:58.385Z,28.23
2023-05-22T11:03:00.862Z,28.40
2023-05-22T11:03:58.941Z,28.74
2023-05-22T11:04:58.020Z,28.97
2023-05-22T11:05:57.887Z,28.99
2023-05-22T11:06:57.896Z,29.20
2023-05-22T11:07:57.913Z,29.26
2023-05-22T11:08:57.945Z,29.46
2023-05-22T11:09:57.927Z,29.73
2023-05-22T11:10:57.887Z,29.94
2023-05-22T11:11:57.902Z,30.04
2023-05-22T11:12:58.354Z,30.21
2023-05-22T11:13:57.916Z,29.92
2023-05-22T11:14:57.921Z,30.03
2023-05-22T11:15:57.922Z,29.71
2023-05-22T11:16:57.883Z,29.89
2023-05-22T11:17:58.382Z,29.92
2023-05-22T11:18:58.990Z,30.01
2023-05-22T11:19:58.179Z,30.14
2023-05-22T11:20:58.215Z,30.17
2023-05-22T11:21:58.119Z,30.14
2023-05-22T11:22:58.362Z,30.16
2023-05-22T11:23:58.195Z,30.23
2023-05-22T11:24:58.179Z,30.19
2023-05-22T11:25:58.198Z,30.16
2023-05-22T11:26:58.247Z,30.04
2023-05-22T11:27:58.369Z,29.89
2023-05-22T11:28:58.294Z,29.73
2023-05-22T11:29:58.282Z,29.72
2023-05-22T11:30:58.361Z,29.79
2023-05-22T11:31:58.347Z,29.89
2023-05-22T11:32:58.915Z,29.80
2023-05-22T11:33:58.475Z,29.77
2023-05-22T11:34:58.708Z,29.70
2023-05-22T11:35:58.482Z,29.67
2023-05-22T11:36:58.555Z,29.68
2023-05-22T11:37:58.495Z,29.75
2023-05-22T11:38:58.533Z,29.71
2023-05-22T11:39:58.570Z,29.50
2023-05-22T11:40:58.621Z,29.40
2023-05-22T11:41:58.764Z,29.45
2023-05-22T11:42:58.629Z,29.38
2023-05-22T11:43:58.680Z,29.42
2023-05-22T11:44:58.720Z,29.20
2023-05-22T11:45:58.767Z,29.19
2023-05-22T11:46:58.779Z,29.19
2023-05-22T11:47:58.828Z,29.21
2023-05-22T11:48:58.818Z,29.27
2023-05-22T11:49:58.831Z,29.00
2023-05-22T11:50:58.892Z,29.06
2023-05-22T11:51:58.903Z,29.03
2023-05-22T11:52:59.032Z,28.84
2023-05-22T11:53:58.994Z,28.87
2023-05-22T11:54:59.026Z,28.88
2023-05-22T11:55:59.038Z,28.65
2023-05-22T11:56:59.046Z,28.48
2023-05-22T11:57:59.141Z,28.44
2023-05-22T11:58:59.159Z,28.41
2023-05-22T11:59:59.254Z,28.35
2023-05-22T12:00:59.271Z,28.28
2023-05-22T12:01:59.223Z,28.29
2023-05-22T12:02:59.487Z,28.20
2023-05-22T12:03:59.353Z,28.04
2023-05-22T12:04:59.313Z,27.96
2023-05-22T12:05:59.350Z,27.87
2023-05-22T12:06:59.440Z,27.86
2023-05-22T12:07:59.398Z,27.48
2023-05-22T12:08:59.515Z,27.28
2023-05-22T12:09:59.501Z,27.31
2023-05-22T12:10:59.552Z,27.40
2023-05-22T12:11:59.533Z,27.18
2023-05-22T12:12:59.578Z,27.12
2023-05-22T12:13:59.587Z,27.08
2023-05-22T12:14:59.674Z,27.07
2023-05-22T12:15:59.714Z,27.02
2023-05-22T12:16:59.758Z,26.94
2023-05-22T12:17:59.788Z,27.02
2023-05-22T12:18:59.843Z,27.07
2023-05-22T12:19:59.892Z,26.87
2023-05-22T12:20:59.886Z,26.87
2023-05-22T12:21:59.958Z,26.85
2023-05-22T12:23:00.062Z,26.79
2023-05-22T12:24:00.026Z,26.64
2023-05-22T12:25:00.152Z,26.50
2023-05-22T12:26:00.097Z,26.42
2023-05-22T12:27:00.116Z,26.49
2023-05-22T12:28:00.166Z,26.49
2023-05-22T12:29:00.156Z,26.55
2023-05-22T12:30:00.405Z,26.49
2023-05-22T12:31:00.273Z,26.43
2023-05-22T12:32:00.312Z,26.20
2023-05-22T12:33:00.340Z,26.00
2023-05-22T12:34:00.337Z,26.04
2023-05-22T12:35:00.377Z,26.00
2023-05-22T12:36:00.430Z,25.95
2023-05-22T12:37:00.381Z,26.00
2023-05-22T12:38:00.455Z,26.08
2023-05-22T12:39:00.453Z,26.02
2023-05-22T12:40:00.491Z,26.02
2023-05-22T12:41:00.610Z,25.93
2023-05-22T12:42:00.563Z,25.33
2023-05-22T12:43:00.617Z,23.67
2023-05-22T12:44:00.590Z,23.02
2023-05-22T12:45:00.771Z,22.32
2023-05-22T12:46:02.489Z,22.79
2023-05-22T12:47:00.692Z,23.30
2023-05-22T12:48:00.751Z,23.14
2023-05-22T12:49:00.745Z,23.01
2023-05-22T12:50:00.739Z,23.31
2023-05-22T12:51:00.761Z,23.58
2023-05-22T12:52:00.829Z,25.44
2023-05-22T12:53:00.806Z,26.84